Omerville, Canada
Current Conditions -  °F | °C
As of 8:07 AM on Sunday 23 Nov 2014 (Local Time) from CYSC Reporting Station
Haze Haze  
Wind Chill:   Ceiling: 500
Heat Index:   Visibility: 3mi
Dew Point:   Wind: 6mph
Humidity: 100%   Direction: 210°SSW
Pressure: 30"   Gusts: NA
Location:  45.28°N, 72.12°W
Report Text: CYSC 231307Z AUTO 21005KT 3SM BR OVC005 03/03 A3000 RMK SLP168
Loading
Personal Weather Stations






























Interactive Weather Map New forecast layout! Learn more

10-Day Weather Forecast

Advertisements
Track Severe Weather on mobile